createdAt,value
2018-09-19T00:02:59.751Z,15.40
2018-09-19T00:05:29.344Z,15.40
2018-09-19T00:08:04.517Z,15.30
2018-09-19T00:10:42.736Z,15.40
2018-09-19T00:13:16.933Z,15.40
2018-09-19T00:15:45.661Z,15.30
2018-09-19T00:18:20.217Z,15.30
2018-09-19T00:20:49.250Z,15.20
2018-09-19T00:23:21.585Z,15.20
2018-09-19T00:26:04.305Z,15.10
2018-09-19T00:28:38.543Z,15.10
2018-09-19T00:31:13.343Z,15.10
2018-09-19T00:33:47.898Z,15.10
2018-09-19T00:36:24.333Z,15.00
2018-09-19T00:38:54.783Z,15.00
2018-09-19T00:41:24.473Z,15.10
2018-09-19T00:43:54.921Z,15.00
2018-09-19T00:46:24.535Z,15.00
2018-09-19T00:48:55.063Z,15.00
2018-09-19T00:51:37.552Z,14.90
2018-09-19T00:54:05.947Z,14.90
2018-09-19T00:56:44.444Z,14.90
2018-09-19T00:59:12.809Z,14.90
2018-09-19T01:01:51.676Z,14.90
2018-09-19T01:04:22.216Z,14.90
2018-09-19T01:06:50.910Z,14.80
2018-09-19T01:09:30.338Z,14.80
2018-09-19T01:12:00.022Z,14.80
2018-09-19T01:14:29.544Z,14.80
2018-09-19T01:16:58.011Z,14.70
2018-09-19T01:19:33.055Z,14.70
2018-09-19T01:22:02.744Z,14.70
2018-09-19T01:24:31.342Z,14.70
2018-09-19T01:27:03.193Z,14.70
2018-09-19T01:29:32.799Z,14.70
2018-09-19T01:32:01.415Z,14.70
2018-09-19T01:34:29.870Z,14.70
2018-09-19T01:36:58.572Z,14.70
2018-09-19T01:39:27.130Z,14.60
2018-09-19T01:41:56.734Z,14.60
2018-09-19T01:44:25.148Z,14.60
2018-09-19T01:46:54.801Z,14.60
2018-09-19T01:49:23.516Z,14.60
2018-09-19T01:51:58.785Z,14.60
2018-09-19T01:54:27.312Z,14.50
2018-09-19T01:56:56.056Z,14.50
2018-09-19T01:59:25.731Z,14.50
2018-09-19T02:01:54.330Z,14.50
2018-09-19T02:04:23.948Z,14.50
2018-09-19T02:06:55.666Z,14.40
2018-09-19T02:09:31.676Z,14.40
2018-09-19T02:12:01.380Z,14.40
2018-09-19T02:14:30.931Z,14.40
2018-09-19T02:17:10.109Z,14.40
2018-09-19T02:20:01.544Z,14.40
2018-09-19T02:22:38.516Z,14.40
2018-09-19T02:25:08.076Z,14.30
2018-09-19T02:27:37.703Z,14.30
2018-09-19T02:30:10.075Z,14.30
2018-09-19T02:32:44.863Z,14.20
2018-09-19T02:35:17.275Z,14.20
2018-09-19T02:38:04.688Z,14.20
2018-09-19T02:40:35.193Z,14.20
2018-09-19T02:43:14.373Z,14.20
2018-09-19T02:45:51.317Z,14.10
2018-09-19T02:48:24.291Z,14.20
2018-09-19T02:50:53.965Z,14.20
2018-09-19T02:53:22.562Z,14.10
2018-09-19T02:55:50.965Z,14.10
2018-09-19T02:58:20.617Z,14.10
2018-09-19T03:00:51.097Z,14.10
2018-09-19T03:03:23.817Z,14.00
2018-09-19T03:05:53.470Z,14.10
2018-09-19T03:08:23.961Z,14.10
2018-09-19T03:10:52.601Z,14.20
2018-09-19T03:13:21.021Z,14.30
2018-09-19T03:15:49.954Z,14.40
2018-09-19T03:18:20.555Z,14.50
2018-09-19T03:20:49.239Z,14.60
2018-09-19T03:23:17.925Z,14.60
2018-09-19T03:25:46.551Z,14.60
2018-09-19T03:28:14.955Z,14.60
2018-09-19T03:30:44.615Z,14.60
2018-09-19T03:33:13.265Z,14.60
2018-09-19T03:35:41.741Z,14.60
2018-09-19T03:38:11.268Z,14.50
2018-09-19T03:40:44.075Z,14.50
2018-09-19T03:43:12.660Z,14.40
2018-09-19T03:45:41.315Z,14.40
2018-09-19T03:48:16.780Z,14.30
2018-09-19T03:50:46.390Z,14.30
2018-09-19T03:53:18.765Z,14.30
2018-09-19T03:55:48.370Z,14.30
2018-09-19T03:58:20.180Z,14.30
2018-09-19T04:01:04.770Z,14.30
2018-09-19T04:03:34.464Z,14.30
2018-09-19T04:06:04.902Z,14.30
2018-09-19T04:08:39.121Z,14.30
2018-09-19T04:11:07.591Z,14.30
2018-09-19T04:13:37.168Z,14.30
2018-09-19T04:16:05.872Z,14.30
2018-09-19T04:18:34.534Z,14.30
2018-09-19T04:21:12.710Z,14.30
2018-09-19T04:23:42.311Z,14.30
2018-09-19T04:26:16.577Z,14.30
2018-09-19T04:28:47.136Z,14.30
2018-09-19T04:31:17.709Z,14.30
2018-09-19T04:33:46.474Z,14.30
2018-09-19T04:36:15.049Z,14.30
2018-09-19T04:38:44.788Z,14.30
2018-09-19T04:41:14.610Z,14.30
2018-09-19T04:43:44.205Z,14.30
2018-09-19T04:46:13.790Z,14.40
2018-09-19T04:48:42.377Z,14.40
2018-09-19T04:51:10.857Z,14.40
2018-09-19T04:53:39.623Z,14.40
2018-09-19T04:56:08.263Z,14.40
2018-09-19T04:58:36.918Z,14.50
2018-09-19T05:01:07.565Z,14.50
2018-09-19T05:03:38.282Z,14.50
2018-09-19T05:06:08.016Z,14.50
2018-09-19T05:08:36.567Z,14.50
2018-09-19T05:11:05.219Z,14.50
2018-09-19T05:13:38.538Z,14.40
2018-09-19T05:16:07.238Z,14.40
2018-09-19T05:18:36.813Z,14.40
2018-09-19T05:21:05.631Z,14.40
2018-09-19T05:23:34.287Z,14.50
2018-09-19T05:26:08.467Z,14.40
2018-09-19T05:28:42.733Z,14.50
2018-09-19T05:31:11.351Z,14.50
2018-09-19T05:33:40.057Z,14.50
2018-09-19T05:36:14.338Z,14.50
2018-09-19T05:38:43.037Z,14.50
2018-09-19T05:41:11.633Z,14.60
2018-09-19T05:43:45.633Z,14.60
2018-09-19T05:46:15.254Z,14.60
2018-09-19T05:48:45.779Z,14.60
2018-09-19T05:51:14.409Z,14.70
2018-09-19T05:53:47.296Z,14.80
2018-09-19T05:56:16.101Z,14.80
2018-09-19T05:58:44.700Z,14.90
2018-09-19T06:01:19.216Z,14.90
2018-09-19T06:03:48.003Z,15.00
2018-09-19T06:06:22.129Z,15.10
2018-09-19T06:08:51.780Z,15.20
2018-09-19T06:11:25.087Z,15.20
2018-09-19T06:13:53.827Z,15.30
2018-09-19T06:16:22.456Z,15.30
2018-09-19T06:18:51.492Z,15.30
2018-09-19T06:21:27.487Z,15.50
2018-09-19T06:23:57.519Z,15.50
2018-09-19T06:26:26.150Z,15.50
2018-09-19T06:28:54.809Z,15.50
2018-09-19T06:31:29.296Z,15.60
2018-09-19T06:34:04.175Z,15.70
2018-09-19T06:36:33.704Z,15.80
2018-09-19T06:39:04.051Z,15.90
2018-09-19T06:41:32.654Z,16.00
2018-09-19T06:44:02.269Z,16.10
2018-09-19T06:46:30.949Z,16.20
2018-09-19T06:49:00.555Z,16.30
2018-09-19T06:51:29.164Z,16.40
2018-09-19T06:53:58.849Z,16.50
2018-09-19T06:56:27.606Z,16.60
2018-09-19T06:58:56.174Z,16.70
2018-09-19T07:01:28.310Z,16.80
2018-09-19T07:04:03.371Z,17.00
2018-09-19T07:06:31.964Z,17.10
2018-09-19T07:09:07.334Z,17.20
2018-09-19T07:11:36.844Z,17.30
2018-09-19T07:14:11.097Z,17.40
2018-09-19T07:16:39.658Z,17.50
2018-09-19T07:19:13.300Z,17.50
2018-09-19T07:21:42.893Z,17.50
2018-09-19T07:24:29.731Z,17.60
2018-09-19T07:27:16.235Z,17.70
2018-09-19T07:29:45.824Z,17.80
2018-09-19T07:32:14.224Z,17.80
2018-09-19T07:34:42.626Z,17.90
2018-09-19T07:37:11.316Z,18.00
2018-09-19T07:39:39.961Z,18.10
2018-09-19T07:42:08.390Z,18.20
2018-09-19T07:44:37.083Z,18.30
2018-09-19T07:47:05.811Z,18.30
2018-09-19T07:49:34.435Z,18.40
2018-09-19T07:52:03.122Z,18.50
2018-09-19T07:54:32.783Z,18.60
2018-09-19T07:57:01.418Z,18.60
2018-09-19T07:59:30.827Z,18.70
2018-09-19T08:02:05.031Z,18.80
2018-09-19T08:04:34.540Z,18.90
2018-09-19T08:07:03.298Z,19.00
2018-09-19T08:09:33.863Z,19.10
2018-09-19T08:12:08.601Z,19.20
2018-09-19T08:14:42.889Z,19.20
2018-09-19T08:17:18.992Z,19.30
2018-09-19T08:19:47.635Z,19.40
2018-09-19T08:22:22.140Z,19.50
2018-09-19T08:24:52.592Z,19.50
2018-09-19T08:27:22.262Z,19.70
2018-09-19T08:29:50.971Z,19.80
2018-09-19T08:32:19.575Z,19.90
2018-09-19T08:34:48.002Z,19.90
2018-09-19T08:37:16.779Z,20.00
2018-09-19T08:39:45.326Z,20.10
2018-09-19T08:42:14.936Z,20.20
2018-09-19T08:44:45.474Z,20.30
2018-09-19T08:47:13.812Z,20.30
2018-09-19T08:49:42.264Z,20.40
2018-09-19T08:52:10.951Z,20.50
2018-09-19T08:54:41.453Z,20.50
2018-09-19T08:57:11.054Z,20.60
2018-09-19T08:59:40.639Z,20.60
2018-09-19T09:02:12.385Z,20.80
2018-09-19T09:04:42.933Z,20.90
2018-09-19T09:07:12.595Z,21.00
2018-09-19T09:09:41.270Z,21.00
2018-09-19T09:12:15.578Z,21.10
2018-09-19T09:14:45.092Z,21.20
2018-09-19T09:17:19.584Z,21.20
2018-09-19T09:19:59.963Z,21.30
2018-09-19T09:22:35.087Z,21.60
2018-09-19T09:25:03.471Z,21.70
2018-09-19T09:27:33.997Z,21.70
2018-09-19T09:30:03.640Z,21.70
2018-09-19T09:32:32.305Z,21.70
2018-09-19T09:35:00.686Z,21.70
2018-09-19T09:37:31.212Z,21.80
2018-09-19T09:40:01.790Z,21.80
2018-09-19T09:42:31.364Z,21.80
2018-09-19T09:45:00.058Z,21.80
2018-09-19T09:47:34.871Z,21.80
2018-09-19T09:50:07.401Z,21.90
2018-09-19T09:52:41.465Z,22.10
2018-09-19T09:55:32.646Z,22.30
2018-09-19T09:58:09.098Z,22.30
2018-09-19T10:00:43.538Z,22.10
2018-09-19T10:03:16.461Z,22.10
2018-09-19T10:05:47.249Z,22.20
2018-09-19T10:08:15.684Z,22.30
2018-09-19T10:10:54.183Z,22.20
2018-09-19T10:13:26.567Z,22.20
2018-09-19T10:15:57.147Z,22.20
2018-09-19T10:18:26.771Z,22.40
2018-09-19T10:20:56.339Z,22.60
2018-09-19T10:23:25.094Z,22.80
2018-09-19T10:25:53.763Z,23.00
2018-09-19T10:28:22.387Z,23.00
2018-09-19T10:30:52.134Z,22.70
2018-09-19T10:33:20.839Z,22.40
2018-09-19T10:35:52.568Z,22.30
2018-09-19T10:38:26.730Z,22.30
2018-09-19T10:40:55.397Z,22.40
2018-09-19T10:43:24.155Z,22.60
2018-09-19T10:45:52.882Z,22.70
2018-09-19T10:48:21.524Z,22.80
2018-09-19T10:50:50.199Z,22.80
2018-09-19T10:53:20.712Z,22.70
2018-09-19T10:55:49.419Z,22.70
2018-09-19T10:58:18.031Z,22.80
2018-09-19T11:00:46.684Z,22.80
2018-09-19T11:03:15.264Z,22.80
2018-09-19T11:05:43.856Z,22.80
2018-09-19T11:08:13.362Z,22.80
2018-09-19T11:10:43.006Z,22.80
2018-09-19T11:13:12.593Z,22.90
2018-09-19T11:15:44.628Z,22.80
2018-09-19T11:18:13.328Z,22.90
2018-09-19T11:20:46.940Z,22.90
2018-09-19T11:23:15.625Z,22.90
2018-09-19T11:25:48.881Z,22.90
2018-09-19T11:28:22.809Z,23.00
2018-09-19T11:30:56.129Z,23.00
2018-09-19T11:33:25.686Z,23.00
2018-09-19T11:36:02.077Z,23.10
2018-09-19T11:38:30.435Z,23.10
2018-09-19T11:41:00.076Z,23.20
2018-09-19T11:43:29.674Z,23.20
2018-09-19T11:46:01.458Z,23.20
2018-09-19T11:48:41.847Z,23.20
2018-09-19T11:51:13.624Z,23.20
2018-09-19T11:53:42.320Z,23.10
2018-09-19T11:56:11.890Z,23.10
2018-09-19T11:58:40.550Z,23.20
2018-09-19T12:01:10.205Z,23.20
2018-09-19T12:03:40.729Z,23.30
2018-09-19T12:06:09.396Z,23.40
2018-09-19T12:08:38.035Z,23.40
2018-09-19T12:11:10.306Z,23.40
2018-09-19T12:13:42.080Z,23.40
2018-09-19T12:16:10.572Z,23.50
2018-09-19T12:18:41.116Z,23.60
2018-09-19T12:21:10.028Z,23.70
2018-09-19T12:23:39.730Z,23.70
2018-09-19T12:26:11.249Z,23.80
2018-09-19T12:28:40.796Z,23.80
2018-09-19T12:31:11.341Z,23.80
2018-09-19T12:33:39.984Z,23.90
2018-09-19T12:36:08.441Z,23.90
2018-09-19T12:38:37.174Z,24.00
2018-09-19T12:41:06.632Z,24.00
2018-09-19T12:43:35.379Z,24.00
2018-09-19T12:46:04.097Z,24.00
2018-09-19T12:48:42.299Z,24.10
2018-09-19T12:51:12.951Z,24.10
2018-09-19T12:53:42.427Z,24.20
2018-09-19T12:56:14.827Z,24.30
2018-09-19T12:58:43.820Z,24.20
2018-09-19T13:01:15.545Z,24.20
2018-09-19T13:03:44.341Z,24.20
2018-09-19T13:06:12.915Z,24.20
2018-09-19T13:08:41.670Z,24.20
2018-09-19T13:11:11.181Z,24.20
2018-09-19T13:13:39.572Z,24.20
2018-09-19T13:16:14.199Z,24.10
2018-09-19T13:18:43.775Z,24.20
2018-09-19T13:21:14.233Z,24.20
2018-09-19T13:23:59.199Z,24.20
2018-09-19T13:26:27.634Z,24.20
2018-09-19T13:28:59.940Z,24.10
2018-09-19T13:31:33.933Z,24.10
2018-09-19T13:34:16.093Z,24.10
2018-09-19T13:36:56.473Z,24.00
2018-09-19T13:39:26.268Z,23.80
2018-09-19T13:41:58.119Z,23.90
2018-09-19T13:44:28.774Z,24.00
2018-09-19T13:46:58.247Z,24.10
2018-09-19T13:49:34.495Z,24.10
2018-09-19T13:52:03.005Z,24.20
2018-09-19T13:54:38.738Z,24.20
2018-09-19T13:57:10.906Z,24.20
2018-09-19T13:59:45.514Z,24.30
2018-09-19T14:02:19.564Z,24.40
2018-09-19T14:05:02.658Z,24.30
2018-09-19T14:07:36.610Z,24.40
2018-09-19T14:10:05.448Z,24.30
2018-09-19T14:12:39.236Z,24.30
2018-09-19T14:15:08.940Z,24.40
2018-09-19T14:17:37.504Z,24.40
2018-09-19T14:20:07.136Z,24.30
2018-09-19T14:22:41.652Z,24.30
2018-09-19T14:25:22.553Z,24.30
2018-09-19T14:30:44.570Z,24.30
2018-09-19T14:33:13.201Z,24.30
2018-09-19T14:35:41.668Z,24.30
2018-09-19T14:38:11.988Z,24.30
2018-09-19T14:40:47.927Z,24.30
2018-09-19T14:43:23.322Z,24.20
2018-09-19T14:45:52.999Z,24.10
2018-09-19T14:48:25.439Z,24.00
2018-09-19T14:50:58.047Z,24.00
2018-09-19T14:53:30.226Z,24.20
2018-09-19T14:56:01.848Z,24.20
2018-09-19T14:58:30.602Z,24.20
2018-09-19T15:00:59.335Z,24.20
2018-09-19T15:03:35.973Z,24.10
2018-09-19T15:06:04.546Z,24.10
2018-09-19T15:08:34.204Z,24.10
2018-09-19T15:11:02.924Z,24.00
2018-09-19T15:13:31.624Z,24.00
2018-09-19T15:16:00.267Z,24.00
2018-09-19T15:18:28.948Z,23.90
2018-09-19T15:20:57.611Z,23.90
2018-09-19T15:23:27.544Z,23.80
2018-09-19T15:25:56.212Z,23.80
2018-09-19T15:28:25.878Z,23.80
2018-09-19T15:30:55.443Z,23.70
2018-09-19T15:33:28.718Z,23.60
2018-09-19T15:36:00.192Z,23.60
2018-09-19T15:38:38.452Z,23.60
2018-09-19T15:41:07.170Z,23.60
2018-09-19T15:43:39.762Z,23.50
2018-09-19T15:46:20.175Z,23.50
2018-09-19T15:49:07.300Z,23.50
2018-09-19T15:51:36.004Z,23.50
2018-09-19T15:54:04.754Z,23.40
2018-09-19T15:56:33.385Z,23.40
2018-09-19T15:59:02.960Z,23.40
2018-09-19T16:01:31.804Z,23.30
2018-09-19T16:04:00.444Z,23.30
2018-09-19T16:06:29.134Z,23.40
2018-09-19T16:08:57.819Z,23.40
2018-09-19T16:11:27.349Z,23.40
2018-09-19T16:13:59.448Z,23.40
2018-09-19T16:16:28.088Z,23.40
2018-09-19T16:18:56.721Z,23.40
2018-09-19T16:21:26.413Z,23.30
2018-09-19T16:23:55.016Z,23.30
2018-09-19T16:26:24.701Z,23.20
2018-09-19T16:28:55.152Z,23.10
2018-09-19T16:31:44.864Z,23.00
2018-09-19T16:34:14.179Z,23.00
2018-09-19T16:36:49.193Z,22.90
2018-09-19T16:39:18.877Z,22.80
2018-09-19T16:41:47.543Z,22.80
2018-09-19T16:44:31.551Z,22.70
2018-09-19T16:47:05.865Z,22.60
2018-09-19T16:49:34.422Z,22.60
2018-09-19T16:52:02.872Z,22.60
2018-09-19T16:54:34.595Z,22.60
2018-09-19T16:57:21.089Z,22.50
2018-09-19T16:59:49.850Z,22.50
2018-09-19T17:02:18.485Z,22.40
2018-09-19T17:04:47.191Z,22.30
2018-09-19T17:07:15.936Z,22.30
2018-09-19T17:09:50.153Z,22.20
2018-09-19T17:12:24.415Z,22.20
2018-09-19T17:14:54.805Z,22.10
2018-09-19T17:17:23.557Z,22.10
2018-09-19T17:19:52.439Z,22.00
2018-09-19T17:22:20.907Z,21.90
2018-09-19T17:24:53.286Z,21.80
2018-09-19T17:27:27.444Z,21.80
2018-09-19T17:30:00.797Z,21.70
2018-09-19T17:32:34.989Z,21.60
2018-09-19T17:35:16.844Z,21.50
2018-09-19T17:37:45.690Z,21.40
2018-09-19T17:40:24.181Z,21.30
2018-09-19T17:42:56.478Z,21.10
2018-09-19T17:45:32.556Z,21.00
2018-09-19T17:48:01.282Z,20.80
2018-09-19T17:50:46.154Z,20.70
2018-09-19T17:53:18.042Z,20.60
2018-09-19T17:55:46.676Z,20.50
2018-09-19T17:58:17.302Z,20.40
2018-09-19T18:00:51.116Z,20.40
2018-09-19T18:03:20.728Z,20.30
2018-09-19T18:05:49.517Z,20.20
2018-09-19T18:08:32.807Z,20.10
2018-09-19T18:11:02.512Z,20.00
2018-09-19T18:13:34.174Z,19.90
2018-09-19T18:16:03.858Z,19.90
2018-09-19T18:18:32.552Z,19.80
2018-09-19T18:21:06.718Z,19.80
2018-09-19T18:23:35.382Z,19.90
2018-09-19T18:26:05.013Z,19.90
2018-09-19T18:28:33.656Z,19.90
2018-09-19T18:31:02.407Z,19.90
2018-09-19T18:33:32.968Z,20.00
2018-09-19T18:36:02.561Z,19.90
2018-09-19T18:38:31.295Z,20.00
2018-09-19T18:40:59.973Z,20.00
2018-09-19T18:43:30.485Z,20.10
2018-09-19T18:46:00.960Z,20.10
2018-09-19T18:48:29.664Z,20.10
2018-09-19T18:51:00.237Z,20.10
2018-09-19T18:53:30.873Z,20.10
2018-09-19T18:56:01.513Z,20.10
2018-09-19T18:58:31.143Z,20.20
2018-09-19T19:01:05.210Z,20.20
2018-09-19T19:03:33.814Z,20.20
2018-09-19T19:06:03.407Z,20.10
2018-09-19T19:08:37.531Z,20.10
2018-09-19T19:11:07.200Z,20.00
2018-09-19T19:13:35.845Z,20.00
2018-09-19T19:16:05.469Z,19.90
2018-09-19T19:18:35.553Z,19.90
2018-09-19T19:21:04.986Z,19.90
2018-09-19T19:23:38.133Z,19.80
2018-09-19T19:26:07.589Z,19.80
2018-09-19T19:28:36.312Z,19.70
2018-09-19T19:31:04.999Z,19.60
2018-09-19T19:33:33.628Z,19.70
2018-09-19T19:36:03.304Z,19.60
2018-09-19T19:38:31.982Z,19.60
2018-09-19T19:41:01.531Z,19.50
2018-09-19T19:43:30.297Z,19.50
2018-09-19T19:46:02.489Z,19.40
2018-09-19T19:48:35.136Z,19.30
2018-09-19T19:51:04.683Z,19.20
2018-09-19T19:53:35.146Z,19.10
2018-09-19T19:56:05.799Z,19.10
2018-09-19T19:58:40.223Z,19.00
2018-09-19T20:01:08.845Z,19.00
2018-09-19T20:03:48.571Z,19.00
2018-09-19T20:06:25.233Z,18.90
2018-09-19T20:08:54.973Z,18.80
2018-09-19T20:11:24.591Z,18.80
2018-09-19T20:13:59.108Z,18.80
2018-09-19T20:16:30.855Z,18.70
2018-09-19T20:19:01.300Z,18.70
2018-09-19T20:21:33.378Z,18.70
2018-09-19T20:24:02.183Z,18.60
2018-09-19T20:26:46.747Z,18.60
2018-09-19T20:29:19.474Z,18.60
2018-09-19T20:31:48.216Z,18.50
2018-09-19T20:34:18.069Z,18.50
2018-09-19T20:36:54.674Z,18.60
2018-09-19T20:39:24.336Z,18.60
2018-09-19T20:41:53.089Z,18.60
2018-09-19T20:44:21.632Z,18.60
2018-09-19T20:46:51.398Z,18.60
2018-09-19T20:49:20.955Z,18.60
2018-09-19T20:51:49.582Z,18.60
2018-09-19T20:54:22.232Z,18.60
2018-09-19T20:56:51.926Z,18.60
2018-09-19T20:59:21.696Z,18.60
2018-09-19T21:01:51.378Z,18.70
2018-09-19T21:04:21.109Z,18.70
2018-09-19T21:06:51.612Z,18.70
2018-09-19T21:09:20.472Z,18.70
2018-09-19T21:11:56.336Z,18.70
2018-09-19T21:14:26.854Z,18.70
2018-09-19T21:16:55.608Z,18.80
2018-09-19T21:19:24.235Z,18.80
2018-09-19T21:21:52.990Z,18.70
2018-09-19T21:24:21.921Z,18.70
2018-09-19T21:26:50.385Z,18.70
2018-09-19T21:29:27.167Z,18.60
2018-09-19T21:32:03.841Z,18.60
2018-09-19T21:34:34.532Z,18.60
2018-09-19T21:37:13.249Z,18.60
2018-09-19T21:39:41.976Z,18.60
2018-09-19T21:42:12.514Z,18.60
2018-09-19T21:44:41.165Z,18.50
2018-09-19T21:47:11.681Z,18.60
2018-09-19T21:49:40.336Z,18.60
2018-09-19T21:52:09.938Z,18.60
2018-09-19T21:54:39.523Z,18.60
2018-09-19T21:57:10.199Z,18.60
2018-09-19T21:59:38.803Z,18.60
2018-09-19T22:02:08.439Z,18.60
2018-09-19T22:04:37.115Z,18.50
2018-09-19T22:07:06.660Z,18.60
2018-09-19T22:09:37.224Z,18.60
2018-09-19T22:12:09.456Z,18.70
2018-09-19T22:14:41.707Z,18.70
2018-09-19T22:17:13.716Z,18.70
2018-09-19T22:19:43.377Z,18.80
2018-09-19T22:22:12.102Z,18.80
2018-09-19T22:24:40.680Z,18.90
2018-09-19T22:27:21.357Z,18.90
2018-09-19T22:29:52.708Z,18.90
2018-09-19T22:32:22.198Z,18.90
2018-09-19T22:34:50.812Z,18.90
2018-09-19T22:37:19.506Z,18.90
2018-09-19T22:39:56.190Z,18.90
2018-09-19T22:42:25.769Z,18.90
2018-09-19T22:44:54.221Z,18.90
2018-09-19T22:47:24.730Z,18.90
2018-09-19T22:49:53.518Z,18.80
2018-09-19T22:52:22.166Z,18.80
2018-09-19T22:54:54.235Z,18.70
2018-09-19T22:57:39.717Z,18.60
2018-09-19T23:00:08.493Z,18.60
2018-09-19T23:02:38.105Z,18.50
2018-09-19T23:05:10.834Z,18.30
2018-09-19T23:07:39.433Z,18.30
2018-09-19T23:10:09.051Z,18.20
2018-09-19T23:12:41.777Z,18.10
2018-09-19T23:15:13.519Z,18.10
2018-09-19T23:17:43.987Z,18.10
2018-09-19T23:20:19.084Z,18.10
2018-09-19T23:22:49.593Z,18.00
2018-09-19T23:25:31.205Z,18.00
2018-09-19T23:28:07.259Z,17.90
2018-09-19T23:30:36.873Z,17.80
2018-09-19T23:33:10.270Z,17.80
2018-09-19T23:35:40.711Z,17.80
2018-09-19T23:38:10.431Z,17.70
2018-09-19T23:40:42.503Z,17.70
2018-09-19T23:43:23.441Z,17.60
2018-09-19T23:45:55.404Z,17.60
2018-09-19T23:48:27.228Z,17.60
2018-09-19T23:50:56.822Z,17.60
2018-09-19T23:53:25.539Z,17.60
2018-09-19T23:55:54.253Z,17.50
2018-09-19T23:58:22.958Z,17.40
